Terminal Aerodrome Forecast
Issued by NWS Boston, MA

Home | Current Version | Previous Version | Text Only | Print | Product List | Glossary On
Versions: 1 2 3 4 5 6 7 8 9 10 11 12 13 14 15 16 17 18 19 20 21
000
FTUS41 KBOX 041140
TAFORH
TAF
KORH 041140Z 0412/0512 31008KT P6SM OVC035
     FM041400 32007KT P6SM SCT040
     FM041600 32008KT P6SM SKC
     FM050000 34004KT P6SM SKC
     FM050800 VRB03KT P6SM VCSH BKN120
     FM051100 VRB03KT 5SM -SN OVC090=

USA.gov is the U.S. government's official web portal to all federal, state and local government web resources and services.